createdAt,value
2023-03-04T00:01:00.406Z,2.39
2023-03-04T00:06:02.152Z,3.38
2023-03-04T00:11:04.400Z,3.92
2023-03-04T00:16:06.439Z,2.23
2023-03-04T00:21:08.513Z,3.22
2023-03-04T00:26:10.247Z,2.17
2023-03-04T00:31:12.694Z,2.03
2023-03-04T00:36:14.355Z,2.11
2023-03-04T00:41:16.077Z,1.78
2023-03-04T00:46:17.845Z,3.05
2023-03-04T00:51:19.624Z,1.59
2023-03-04T00:56:21.375Z,2.21
2023-03-04T01:01:23.499Z,1.09
2023-03-04T01:06:25.142Z,2.00
2023-03-04T01:11:26.761Z,1.96
2023-03-04T01:16:28.710Z,2.09
2023-03-04T01:21:30.769Z,2.02
2023-03-04T01:26:32.433Z,1.99
2023-03-04T01:31:34.101Z,2.37
2023-03-04T01:36:35.830Z,2.53
2023-03-04T01:41:37.618Z,2.17
2023-03-04T01:46:50.784Z,1.45
2023-03-04T01:51:55.950Z,1.15
2023-03-04T01:57:00.259Z,1.82
2023-03-04T02:02:02.423Z,1.92
2023-03-04T02:07:05.760Z,2.30
2023-03-04T02:12:07.561Z,2.15
2023-03-04T02:17:12.599Z,2.43
2023-03-04T02:22:14.366Z,1.70
2023-03-04T02:27:16.061Z,2.86
2023-03-04T02:32:18.160Z,2.80
2023-03-04T02:37:20.397Z,2.26
2023-03-04T02:42:22.128Z,2.14
2023-03-04T02:47:23.762Z,1.55
2023-03-04T02:52:26.714Z,2.03
2023-03-04T02:57:28.428Z,2.25
2023-03-04T03:02:30.196Z,1.87
2023-03-04T03:07:32.299Z,1.43
2023-03-04T03:12:33.897Z,1.35
2023-03-04T03:17:35.599Z,1.38
2023-03-04T03:22:37.621Z,1.19
2023-03-04T03:27:39.575Z,2.23
2023-03-04T03:32:41.307Z,1.82
2023-03-04T03:37:43.086Z,1.30
2023-03-04T03:42:44.865Z,2.00
2023-03-04T03:47:46.697Z,1.65
2023-03-04T03:52:48.374Z,1.31
2023-03-04T03:57:50.207Z,2.28
2023-03-04T04:02:54.888Z,2.32
2023-03-04T04:07:56.505Z,1.12
2023-03-04T04:12:58.240Z,0.74
2023-03-04T04:18:00.007Z,1.06
2023-03-04T04:23:02.213Z,1.53
2023-03-04T04:28:03.985Z,0.91
2023-03-04T04:33:05.724Z,2.04
2023-03-04T04:38:08.863Z,1.22
2023-03-04T04:43:10.601Z,-0.14
2023-03-04T04:48:12.195Z,1.00
2023-03-04T04:53:14.495Z,0.37
2023-03-04T04:58:16.174Z,-0.58
2023-03-04T05:03:18.688Z,0.13
2023-03-04T05:08:20.535Z,0.55
2023-03-04T05:13:22.260Z,0.43
2023-03-04T05:18:25.936Z,0.59
2023-03-04T05:23:30.435Z,0.24
2023-03-04T05:28:32.546Z,0.68
2023-03-04T05:33:35.029Z,-0.03
2023-03-04T05:38:37.029Z,0.89
2023-03-04T05:43:42.845Z,0.41
2023-03-04T05:48:45.102Z,0.13
2023-03-04T05:53:47.024Z,1.80
2023-03-04T05:58:48.849Z,1.19
2023-03-04T06:03:50.572Z,-0.04
2023-03-04T06:08:52.381Z,0.87
2023-03-04T06:13:54.172Z,1.09
2023-03-04T06:18:55.920Z,0.79
2023-03-04T06:23:57.576Z,-0.15
2023-03-04T06:28:59.262Z,0.17
2023-03-04T06:34:00.904Z,1.47
2023-03-04T06:39:07.425Z,0.86
2023-03-04T06:44:09.157Z,1.69
2023-03-04T06:49:10.828Z,0.98
2023-03-04T06:54:12.515Z,0.89
2023-03-04T06:59:14.570Z,1.66
2023-03-04T07:04:16.323Z,1.93
2023-03-04T07:09:18.397Z,1.40
2023-03-04T07:14:22.398Z,1.48
2023-03-04T07:19:25.805Z,1.31
2023-03-04T07:24:27.804Z,1.82
2023-03-04T07:29:29.746Z,2.23
2023-03-04T07:34:31.438Z,1.22
2023-03-04T07:39:33.286Z,1.84
2023-03-04T07:44:35.007Z,1.95
2023-03-04T07:49:37.096Z,2.34
2023-03-04T07:54:39.015Z,1.47
2023-03-04T07:59:40.859Z,-0.41
2023-03-04T08:04:42.613Z,0.21
2023-03-04T08:09:44.630Z,-0.24
2023-03-04T08:14:46.802Z,-0.43
2023-03-04T08:19:48.539Z,-0.55
2023-03-04T08:24:50.138Z,0.16
2023-03-04T08:29:51.799Z,0.43
2023-03-04T08:34:55.305Z,2.46
2023-03-04T08:39:57.278Z,0.89
2023-03-04T08:44:58.959Z,0.58
2023-03-04T08:50:00.570Z,0.77
2023-03-04T08:55:02.689Z,1.73
2023-03-04T09:00:04.872Z,1.67
2023-03-04T09:05:07.212Z,1.71
2023-03-04T09:10:09.672Z,3.55
2023-03-04T09:15:12.124Z,3.57
2023-03-04T09:20:14.141Z,3.35
2023-03-04T09:25:15.949Z,3.49
2023-03-04T09:30:18.061Z,3.32
2023-03-04T09:35:19.936Z,3.39
2023-03-04T09:40:50.956Z,2.18
2023-03-04T09:45:57.151Z,2.97
2023-03-04T09:51:04.747Z,2.27
2023-03-04T09:56:06.884Z,2.68
2023-03-04T10:01:26.812Z,3.87
2023-03-04T10:06:31.293Z,3.77
2023-03-04T10:11:45.094Z,3.13
2023-03-04T10:16:57.390Z,2.31
2023-03-04T10:21:59.451Z,2.46
2023-03-04T10:27:07.919Z,4.27
2023-03-04T10:32:16.300Z,3.89
2023-03-04T10:37:18.078Z,3.66
2023-03-04T10:42:20.547Z,4.15
2023-03-04T10:47:31.386Z,3.74
2023-03-04T10:52:41.405Z,4.74
2023-03-04T10:57:48.505Z,3.41
2023-03-04T11:06:33.485Z,2.18
2023-03-04T11:11:42.998Z,2.79
2023-03-04T11:16:54.792Z,2.62
2023-03-04T11:21:58.297Z,2.35
2023-03-04T11:27:05.919Z,2.39
2023-03-04T11:32:29.395Z,3.87
2023-03-04T11:37:47.885Z,2.82
2023-03-04T11:42:54.938Z,3.45
2023-03-04T11:47:59.401Z,2.44
2023-03-04T11:53:31.869Z,1.24
2023-03-04T11:58:45.486Z,2.08
2023-03-04T12:03:59.373Z,2.42
2023-03-04T12:09:09.134Z,3.62
2023-03-04T12:14:25.547Z,2.51
2023-03-04T12:19:41.959Z,1.56
2023-03-04T12:25:16.692Z,3.14
2023-03-04T12:30:38.838Z,1.18
2023-03-04T12:35:46.466Z,2.63
2023-03-04T12:41:06.763Z,2.36
2023-03-04T12:46:21.537Z,2.73
2023-03-04T12:51:48.636Z,3.19
2023-03-04T12:57:09.095Z,2.43
2023-03-04T13:02:35.812Z,2.83
2023-03-04T13:08:18.990Z,2.80
2023-03-04T13:13:32.678Z,2.10
2023-03-04T13:18:36.876Z,3.08
2023-03-04T13:23:38.568Z,1.50
2023-03-04T13:28:40.139Z,2.68
2023-03-04T13:33:53.284Z,2.34
2023-03-04T13:39:00.382Z,4.20
2023-03-04T13:44:06.850Z,4.34
2023-03-04T13:49:20.023Z,2.63
2023-03-04T13:54:33.960Z,3.23
2023-03-04T13:59:57.606Z,2.89
2023-03-04T14:05:02.179Z,3.55
2023-03-04T14:10:12.529Z,4.54
2023-03-04T14:15:14.163Z,3.59
2023-03-04T14:20:26.999Z,3.97
2023-03-04T14:25:36.968Z,5.02
2023-03-04T14:30:43.372Z,2.91
2023-03-04T14:35:48.230Z,3.51
2023-03-04T14:40:55.810Z,2.95
2023-03-04T14:46:00.343Z,3.94
2023-03-04T14:51:02.933Z,4.55
2023-03-04T14:56:10.520Z,3.18
2023-03-04T15:01:22.043Z,4.72
2023-03-04T15:06:27.151Z,5.00
2023-03-04T15:11:45.775Z,3.86
2023-03-04T15:16:56.664Z,3.46
2023-03-04T15:22:06.464Z,3.53
2023-03-04T15:27:12.455Z,4.91
2023-03-04T15:32:14.291Z,4.10
2023-03-04T15:37:21.915Z,3.30
2023-03-04T15:42:24.029Z,4.79
2023-03-04T15:47:25.807Z,4.22
2023-03-04T15:52:27.393Z,2.83
2023-03-04T15:57:29.177Z,3.47
2023-03-04T16:02:30.752Z,3.46
2023-03-04T16:07:32.317Z,3.50
2023-03-04T16:12:33.999Z,3.02
2023-03-04T16:17:35.657Z,3.99
2023-03-04T16:22:37.420Z,3.62
2023-03-04T16:27:40.386Z,3.38
2023-03-04T16:32:42.216Z,4.12
2023-03-04T16:37:44.961Z,4.25
2023-03-04T16:42:46.616Z,6.25
2023-03-04T16:47:48.318Z,4.95
2023-03-04T16:52:50.423Z,6.59
2023-03-04T16:57:53.264Z,5.94
2023-03-04T17:03:00.529Z,6.06
2023-03-04T17:08:02.165Z,5.30
2023-03-04T17:13:03.797Z,5.51
2023-03-04T17:18:05.599Z,5.98
2023-03-04T17:23:07.340Z,5.93
2023-03-04T17:28:08.943Z,6.14
2023-03-04T17:33:10.514Z,5.96
2023-03-04T17:38:13.538Z,5.17
2023-03-04T17:43:15.201Z,5.56
2023-03-04T17:48:17.062Z,6.07
2023-03-04T17:53:19.733Z,6.21
2023-03-04T17:58:23.389Z,5.40
2023-03-04T18:03:25.033Z,5.02
2023-03-04T18:08:26.591Z,4.61
2023-03-04T18:13:28.177Z,4.19
2023-03-04T18:18:29.718Z,3.15
2023-03-04T18:23:31.816Z,3.52
2023-03-04T18:28:33.980Z,2.65
2023-03-04T18:33:36.148Z,4.10
2023-03-04T18:38:37.802Z,4.26
2023-03-04T18:43:39.834Z,3.91
2023-03-04T18:48:48.797Z,2.79
2023-03-04T18:53:50.500Z,2.88
2023-03-04T18:58:52.199Z,2.20
2023-03-04T19:03:59.100Z,3.36
2023-03-04T19:09:00.797Z,3.99
2023-03-04T19:14:02.772Z,4.31
2023-03-04T19:19:04.913Z,4.34
2023-03-04T19:24:07.014Z,2.39
2023-03-04T19:29:08.928Z,2.29
2023-03-04T19:34:11.163Z,3.25
2023-03-04T19:39:14.229Z,3.81
2023-03-04T19:44:15.838Z,4.46
2023-03-04T19:49:17.489Z,2.51
2023-03-04T19:54:19.117Z,2.26
2023-03-04T19:59:21.555Z,3.00
2023-03-04T20:04:23.300Z,3.52
2023-03-04T20:09:24.937Z,2.03
2023-03-04T20:14:27.564Z,2.72
2023-03-04T20:19:30.196Z,3.73
2023-03-04T20:24:31.764Z,4.23
2023-03-04T20:29:33.365Z,3.78
2023-03-04T20:34:36.860Z,4.20
2023-03-04T20:39:38.498Z,3.71
2023-03-04T20:44:40.616Z,2.08
2023-03-04T20:49:42.296Z,4.26
2023-03-04T20:54:44.014Z,4.49
2023-03-04T20:59:45.648Z,4.50
2023-03-04T21:04:47.311Z,4.52
2023-03-04T21:09:48.981Z,3.52
2023-03-04T21:14:50.641Z,3.30
2023-03-04T21:19:52.358Z,3.40
2023-03-04T21:24:54.096Z,2.88
2023-03-04T21:29:55.654Z,1.69
2023-03-04T21:34:57.238Z,2.43
2023-03-04T21:40:01.240Z,3.14
2023-03-04T21:45:03.228Z,2.50
2023-03-04T21:50:05.289Z,1.72
2023-03-04T21:55:07.134Z,1.73
2023-03-04T22:00:09.213Z,2.86
2023-03-04T22:05:10.858Z,2.92
2023-03-04T22:10:12.474Z,3.38
2023-03-04T22:15:14.121Z,4.07
2023-03-04T22:20:15.950Z,3.65
2023-03-04T22:25:17.576Z,3.73
2023-03-04T22:30:19.507Z,4.74
2023-03-04T22:35:21.150Z,4.20
2023-03-04T22:40:23.381Z,5.16
2023-03-04T22:45:28.249Z,3.98
2023-03-04T22:50:29.944Z,4.92
2023-03-04T22:55:31.752Z,4.15
2023-03-04T23:00:33.489Z,5.02
2023-03-04T23:05:35.154Z,4.10
2023-03-04T23:10:36.744Z,2.98
2023-03-04T23:15:40.368Z,3.50
2023-03-04T23:20:43.345Z,2.99
2023-03-04T23:25:46.309Z,4.12
2023-03-04T23:30:47.979Z,2.97
2023-03-04T23:35:49.759Z,3.20
2023-03-04T23:40:51.380Z,2.88
2023-03-04T23:45:53.110Z,3.16
2023-03-04T23:50:55.349Z,4.01
2023-03-04T23:55:56.919Z,4.63
